EZY54AH EGKK-EGJJ
Flight info
| Callsign | EZY54AH |
|---|---|
| Flight time | 0h 35m |
| Altitude | 26000 |
| Route | NOVMA L620 SAM N63 LELNA |
| Aircraft | A319/M-SDE3FGHIRWY/LB1 |
Departure
| Time | 2026-04-17 08:54 |
|---|---|
| Airport | London Gatwick Airport (EGKK) |
Arrival
| Time | 2026-04-17 09:29 |
|---|---|
| Airport | Jersey Airport (EGJJ) |
| Time | Latitude | Longitude | Altitude | Speed | Heading |
|---|---|---|---|---|---|
| 2026-04-17 08:26 | 51.15245 | -0.18846 | 211 ft | 0 kts | 258° |
| 2026-04-17 08:41 | 51.15249 | -0.18813 | 210 ft | 4 kts | 258° |
| 2026-04-17 08:42 | 51.15255 | -0.18772 | 207 ft | 4 kts | 257° |
| 2026-04-17 08:42 | 51.15265 | -0.18738 | 211 ft | 4 kts | 206° |
| 2026-04-17 08:42 | 51.15283 | -0.18734 | 213 ft | 3 kts | 168° |
| 2026-04-17 08:42 | 51.15296 | -0.18739 | 208 ft | 0 kts | 168° |
| 2026-04-17 08:44 | 51.15287 | -0.18735 | 212 ft | 2 kts | 167° |
| 2026-04-17 08:45 | 51.15267 | -0.18728 | 216 ft | 4 kts | 167° |
| 2026-04-17 08:45 | 51.15238 | -0.18718 | 210 ft | 5 kts | 167° |
| 2026-04-17 08:45 | 51.15199 | -0.18705 | 212 ft | 6 kts | 167° |
| 2026-04-17 08:45 | 51.15153 | -0.18674 | 207 ft | 8 kts | 137° |
| 2026-04-17 08:46 | 51.15150 | -0.18583 | 204 ft | 9 kts | 76° |
| 2026-04-17 08:46 | 51.15165 | -0.18481 | 210 ft | 10 kts | 81° |
| 2026-04-17 08:46 | 51.15179 | -0.18369 | 206 ft | 11 kts | 78° |
| 2026-04-17 08:46 | 51.15191 | -0.18245 | 204 ft | 12 kts | 82° |
| 2026-04-17 08:47 | 51.15209 | -0.18116 | 204 ft | 13 kts | 78° |
| 2026-04-17 08:47 | 51.15228 | -0.17975 | 204 ft | 13 kts | 77° |
| 2026-04-17 08:47 | 51.15249 | -0.17825 | 210 ft | 14 kts | 77° |
| 2026-04-17 08:47 | 51.15271 | -0.17664 | 204 ft | 15 kts | 77° |
| 2026-04-17 08:48 | 51.15295 | -0.17493 | 204 ft | 15 kts | 78° |
| 2026-04-17 08:48 | 51.15272 | -0.17340 | 212 ft | 15 kts | 140° |
| 2026-04-17 08:48 | 51.15186 | -0.17237 | 204 ft | 15 kts | 121° |
| 2026-04-17 08:48 | 51.15182 | -0.17184 | 204 ft | 0 kts | 85° |
| 2026-04-17 08:49 | 51.15183 | -0.17172 | 206 ft | 2 kts | 81° |
| 2026-04-17 08:49 | 51.15186 | -0.17144 | 204 ft | 3 kts | 78° |
| 2026-04-17 08:49 | 51.15192 | -0.17102 | 209 ft | 5 kts | 76° |
| 2026-04-17 08:49 | 51.15201 | -0.17045 | 209 ft | 6 kts | 77° |
| 2026-04-17 08:50 | 51.15211 | -0.16976 | 204 ft | 7 kts | 77° |
| 2026-04-17 08:50 | 51.15218 | -0.16930 | 209 ft | 0 kts | 78° |
| 2026-04-17 08:51 | 51.15218 | -0.16925 | 208 ft | 2 kts | 78° |
| 2026-04-17 08:51 | 51.15223 | -0.16887 | 204 ft | 4 kts | 82° |
| 2026-04-17 08:51 | 51.15219 | -0.16838 | 204 ft | 5 kts | 108° |
| 2026-04-17 08:51 | 51.15193 | -0.16795 | 204 ft | 6 kts | 150° |
| 2026-04-17 08:52 | 51.15139 | -0.16779 | 207 ft | 9 kts | 191° |
| 2026-04-17 08:52 | 51.15114 | -0.16854 | 211 ft | 0 kts | 257° |
| 2026-04-17 08:53 | 51.15112 | -0.16868 | 202 ft | 8 kts | 257° |
| 2026-04-17 08:53 | 51.15038 | -0.17408 | 210 ft | 91 kts | 258° |
| 2026-04-17 08:54 | 51.14848 | -0.18768 | 235 ft | 153 kts | 257° |
| 2026-04-17 08:54 | 51.14611 | -0.20389 | 1068 ft | 147 kts | 255° |
| 2026-04-17 08:54 | 51.14391 | -0.21947 | 1893 ft | 149 kts | 254° |
| 2026-04-17 08:54 | 51.14153 | -0.23674 | 2416 ft | 172 kts | 255° |
| 2026-04-17 08:55 | 51.13879 | -0.25671 | 2947 ft | 196 kts | 255° |
| 2026-04-17 08:55 | 51.13565 | -0.27932 | 3548 ft | 221 kts | 255° |
| 2026-04-17 08:55 | 51.13212 | -0.30471 | 3933 ft | 243 kts | 255° |
| 2026-04-17 08:55 | 51.12846 | -0.33118 | 4004 ft | 244 kts | 256° |
| 2026-04-17 08:56 | 51.12488 | -0.35737 | 4010 ft | 245 kts | 256° |
| 2026-04-17 08:56 | 51.12127 | -0.38380 | 4010 ft | 244 kts | 256° |
| 2026-04-17 08:56 | 51.11767 | -0.41034 | 4226 ft | 248 kts | 256° |
| 2026-04-17 08:56 | 51.11270 | -0.43688 | 5397 ft | 248 kts | 245° |
| 2026-04-17 08:57 | 51.10510 | -0.46142 | 6453 ft | 253 kts | 243° |
| 2026-04-17 08:57 | 51.09716 | -0.48682 | 7449 ft | 258 kts | 243° |
| 2026-04-17 08:57 | 51.08911 | -0.51264 | 8494 ft | 261 kts | 243° |
| 2026-04-17 08:57 | 51.08097 | -0.53866 | 9531 ft | 265 kts | 243° |
| 2026-04-17 08:58 | 51.07266 | -0.56515 | 10493 ft | 268 kts | 243° |
| 2026-04-17 08:58 | 51.06427 | -0.59190 | 11432 ft | 271 kts | 243° |
| 2026-04-17 08:58 | 51.05605 | -0.61870 | 12374 ft | 274 kts | 246° |
| 2026-04-17 08:58 | 51.05072 | -0.64813 | 13301 ft | 279 kts | 256° |
| 2026-04-17 08:59 | 51.04673 | -0.67846 | 14210 ft | 281 kts | 256° |
| 2026-04-17 08:59 | 51.04265 | -0.70908 | 15022 ft | 285 kts | 256° |
| 2026-04-17 08:59 | 51.03851 | -0.74000 | 15832 ft | 288 kts | 256° |
| 2026-04-17 08:59 | 51.03430 | -0.77128 | 16442 ft | 299 kts | 256° |
| 2026-04-17 09:00 | 51.02974 | -0.80499 | 16630 ft | 322 kts | 256° |
| 2026-04-17 09:00 | 51.02486 | -0.84071 | 17075 ft | 335 kts | 256° |
| 2026-04-17 09:00 | 51.01993 | -0.87672 | 17761 ft | 340 kts | 256° |
| 2026-04-17 09:00 | 51.01488 | -0.91363 | 18497 ft | 344 kts | 256° |
| 2026-04-17 09:01 | 51.00977 | -0.95107 | 19157 ft | 347 kts | 255° |
| 2026-04-17 09:01 | 51.00468 | -0.98843 | 19841 ft | 349 kts | 255° |
| 2026-04-17 09:01 | 50.99953 | -1.02623 | 20536 ft | 352 kts | 255° |
| 2026-04-17 09:01 | 50.99433 | -1.06431 | 21216 ft | 354 kts | 255° |
| 2026-04-17 09:02 | 50.98745 | -1.10197 | 21879 ft | 355 kts | 244° |
| 2026-04-17 09:02 | 50.97392 | -1.13421 | 22510 ft | 357 kts | 227° |
| 2026-04-17 09:02 | 50.95426 | -1.15860 | 23152 ft | 362 kts | 215° |
| 2026-04-17 09:02 | 50.93284 | -1.18020 | 23792 ft | 365 kts | 214° |
| 2026-04-17 09:03 | 50.91118 | -1.20174 | 24310 ft | 367 kts | 214° |
| 2026-04-17 09:03 | 50.88940 | -1.22329 | 24825 ft | 370 kts | 214° |
| 2026-04-17 09:03 | 50.86750 | -1.24494 | 25094 ft | 371 kts | 214° |
| 2026-04-17 09:03 | 50.84548 | -1.26674 | 25178 ft | 385 kts | 214° |
| 2026-04-17 09:04 | 50.82230 | -1.28972 | 25194 ft | 399 kts | 214° |
| 2026-04-17 09:04 | 50.79840 | -1.31347 | 25193 ft | 411 kts | 214° |
| 2026-04-17 09:04 | 50.77392 | -1.33779 | 25193 ft | 417 kts | 214° |
| 2026-04-17 09:04 | 50.74950 | -1.36196 | 25193 ft | 419 kts | 214° |
| 2026-04-17 09:05 | 50.72476 | -1.38642 | 25193 ft | 419 kts | 214° |
| 2026-04-17 09:05 | 50.69987 | -1.41099 | 25206 ft | 418 kts | 214° |
| 2026-04-17 09:05 | 50.67552 | -1.43493 | 25191 ft | 416 kts | 214° |
| 2026-04-17 09:05 | 50.65095 | -1.45907 | 25185 ft | 416 kts | 214° |
| 2026-04-17 09:06 | 50.62625 | -1.48333 | 25170 ft | 417 kts | 214° |
| 2026-04-17 09:06 | 50.60159 | -1.50756 | 25193 ft | 418 kts | 214° |
| 2026-04-17 09:06 | 50.57676 | -1.53198 | 25195 ft | 419 kts | 214° |
| 2026-04-17 09:06 | 50.55226 | -1.55610 | 25195 ft | 419 kts | 214° |
| 2026-04-17 09:07 | 50.52754 | -1.58035 | 25196 ft | 419 kts | 214° |
| 2026-04-17 09:07 | 50.50268 | -1.60468 | 25196 ft | 419 kts | 214° |
| 2026-04-17 09:07 | 50.47796 | -1.62882 | 25201 ft | 419 kts | 214° |
| 2026-04-17 09:07 | 50.45318 | -1.65295 | 25201 ft | 419 kts | 214° |
| 2026-04-17 09:08 | 50.42869 | -1.67679 | 25196 ft | 418 kts | 214° |
| 2026-04-17 09:08 | 50.40364 | -1.70115 | 25185 ft | 419 kts | 214° |
| 2026-04-17 09:08 | 50.37883 | -1.72526 | 25202 ft | 420 kts | 214° |
| 2026-04-17 09:08 | 50.35421 | -1.74919 | 25203 ft | 414 kts | 214° |
| 2026-04-17 09:09 | 50.33017 | -1.77247 | 25203 ft | 399 kts | 214° |
| 2026-04-17 09:09 | 50.30696 | -1.79495 | 25189 ft | 395 kts | 214° |
| 2026-04-17 09:09 | 50.28350 | -1.81765 | 24954 ft | 393 kts | 214° |
| 2026-04-17 09:09 | 50.26031 | -1.84007 | 24736 ft | 391 kts | 214° |
| 2026-04-17 09:10 | 50.21431 | -1.88450 | 24261 ft | 386 kts | 214° |
| 2026-04-17 09:10 | 50.19146 | -1.90652 | 24040 ft | 385 kts | 214° |
| 2026-04-17 09:10 | 50.16890 | -1.92823 | 23800 ft | 384 kts | 214° |
| 2026-04-17 09:11 | 50.14622 | -1.95004 | 23524 ft | 384 kts | 214° |
| 2026-04-17 09:11 | 50.12341 | -1.97188 | 23250 ft | 383 kts | 214° |
| 2026-04-17 09:11 | 50.10072 | -1.99355 | 22979 ft | 381 kts | 214° |
| 2026-04-17 09:11 | 50.07811 | -2.01514 | 22704 ft | 380 kts | 213° |
| 2026-04-17 09:12 | 50.05558 | -2.03663 | 22434 ft | 379 kts | 213° |
| 2026-04-17 09:12 | 50.03337 | -2.05780 | 22180 ft | 377 kts | 213° |
| 2026-04-17 09:12 | 50.01092 | -2.07919 | 21911 ft | 376 kts | 213° |
| 2026-04-17 09:12 | 49.98817 | -2.09946 | 21645 ft | 377 kts | 208° |
| 2026-04-17 09:13 | 49.96343 | -2.11309 | 21402 ft | 379 kts | 197° |
| 2026-04-17 09:13 | 49.93779 | -2.12190 | 21133 ft | 380 kts | 196° |
| 2026-04-17 09:13 | 49.91180 | -2.13071 | 20868 ft | 379 kts | 196° |
| 2026-04-17 09:13 | 49.88637 | -2.13933 | 20617 ft | 378 kts | 196° |
| 2026-04-17 09:14 | 49.86055 | -2.14812 | 20371 ft | 377 kts | 196° |
| 2026-04-17 09:14 | 49.83480 | -2.15687 | 20183 ft | 376 kts | 196° |
| 2026-04-17 09:14 | 49.80960 | -2.16541 | 20095 ft | 376 kts | 196° |
| 2026-04-17 09:14 | 49.78399 | -2.17409 | 19847 ft | 375 kts | 196° |
| 2026-04-17 09:15 | 49.75857 | -2.18269 | 19606 ft | 374 kts | 196° |
| 2026-04-17 09:15 | 49.74165 | -2.18843 | 19455 ft | 373 kts | 196° |
| 2026-04-17 09:15 | 49.71632 | -2.19705 | 19191 ft | 372 kts | 196° |
| 2026-04-17 09:15 | 49.69116 | -2.20633 | 18752 ft | 370 kts | 198° |
| 2026-04-17 09:16 | 49.66628 | -2.21694 | 18167 ft | 367 kts | 199° |
| 2026-04-17 09:16 | 49.64216 | -2.22802 | 17481 ft | 366 kts | 200° |
| 2026-04-17 09:16 | 49.61756 | -2.23956 | 16814 ft | 367 kts | 200° |
| 2026-04-17 09:16 | 49.59349 | -2.25075 | 16239 ft | 353 kts | 200° |
| 2026-04-17 09:17 | 49.57033 | -2.26136 | 15527 ft | 342 kts | 200° |
| 2026-04-17 09:17 | 49.54811 | -2.27139 | 15150 ft | 325 kts | 200° |
| 2026-04-17 09:17 | 49.52716 | -2.28068 | 15013 ft | 302 kts | 200° |
| 2026-04-17 09:17 | 49.50725 | -2.28945 | 14610 ft | 291 kts | 200° |
| 2026-04-17 09:18 | 49.48790 | -2.29801 | 14038 ft | 287 kts | 200° |
| 2026-04-17 09:18 | 49.46893 | -2.30643 | 13395 ft | 285 kts | 200° |
| 2026-04-17 09:18 | 49.44995 | -2.31481 | 12741 ft | 283 kts | 200° |
| 2026-04-17 09:18 | 49.43069 | -2.32217 | 11817 ft | 291 kts | 191° |
| 2026-04-17 09:19 | 49.41006 | -2.32378 | 10831 ft | 302 kts | 183° |
| 2026-04-17 09:19 | 49.38916 | -2.32282 | 10397 ft | 291 kts | 181° |
| 2026-04-17 09:19 | 49.36947 | -2.32043 | 10036 ft | 281 kts | 170° |
| 2026-04-17 09:19 | 49.35206 | -2.30732 | 9464 ft | 285 kts | 144° |
| 2026-04-17 09:20 | 49.33823 | -2.28559 | 8825 ft | 286 kts | 135° |
| 2026-04-17 09:20 | 49.32521 | -2.26271 | 8191 ft | 284 kts | 135° |
| 2026-04-17 09:20 | 49.31248 | -2.23963 | 7579 ft | 282 kts | 129° |
| 2026-04-17 09:20 | 49.30470 | -2.21214 | 7001 ft | 286 kts | 105° |
| 2026-04-17 09:21 | 49.30180 | -2.18218 | 6754 ft | 281 kts | 92° |
| 2026-04-17 09:21 | 49.30336 | -2.15303 | 6632 ft | 269 kts | 85° |
| 2026-04-17 09:21 | 49.30557 | -2.12533 | 6511 ft | 257 kts | 85° |
| 2026-04-17 09:21 | 49.30666 | -2.09881 | 6370 ft | 241 kts | 100° |
| 2026-04-17 09:22 | 49.30201 | -2.07538 | 6101 ft | 220 kts | 124° |
| 2026-04-17 09:22 | 49.29365 | -2.05660 | 5514 ft | 213 kts | 129° |
| 2026-04-17 09:22 | 49.28561 | -2.03759 | 4927 ft | 211 kts | 127° |
| 2026-04-17 09:22 | 49.27777 | -2.01858 | 4325 ft | 209 kts | 127° |
| 2026-04-17 09:23 | 49.27002 | -2.00000 | 3766 ft | 209 kts | 127° |
| 2026-04-17 09:23 | 49.26238 | -1.98184 | 3604 ft | 195 kts | 127° |
| 2026-04-17 09:23 | 49.25521 | -1.96467 | 3327 ft | 189 kts | 127° |
| 2026-04-17 09:23 | 49.24812 | -1.94775 | 3031 ft | 186 kts | 128° |
| 2026-04-17 09:24 | 49.23839 | -1.93599 | 2998 ft | 178 kts | 171° |
| 2026-04-17 09:24 | 49.22754 | -1.93930 | 3023 ft | 151 kts | 223° |
| 2026-04-17 09:24 | 49.22481 | -1.95298 | 3019 ft | 140 kts | 279° |
| 2026-04-17 09:24 | 49.22714 | -1.96729 | 2996 ft | 135 kts | 265° |
| 2026-04-17 09:25 | 49.22476 | -1.98092 | 2916 ft | 133 kts | 254° |
| 2026-04-17 09:25 | 49.22427 | -1.99459 | 2790 ft | 126 kts | 261° |
| 2026-04-17 09:25 | 49.22331 | -2.00747 | 2634 ft | 122 kts | 260° |
| 2026-04-17 09:25 | 49.22232 | -2.02026 | 2474 ft | 120 kts | 260° |
| 2026-04-17 09:26 | 49.22132 | -2.03293 | 2310 ft | 121 kts | 261° |
| 2026-04-17 09:26 | 49.22029 | -2.04565 | 2149 ft | 120 kts | 261° |
| 2026-04-17 09:26 | 49.21928 | -2.05815 | 1986 ft | 119 kts | 261° |
| 2026-04-17 09:26 | 49.21825 | -2.07074 | 1815 ft | 119 kts | 260° |
| 2026-04-17 09:27 | 49.21721 | -2.08333 | 1645 ft | 119 kts | 260° |
| 2026-04-17 09:27 | 49.21620 | -2.09573 | 1482 ft | 119 kts | 260° |
| 2026-04-17 09:27 | 49.21516 | -2.10834 | 1313 ft | 119 kts | 260° |
| 2026-04-17 09:27 | 49.21411 | -2.12103 | 1155 ft | 120 kts | 261° |
| 2026-04-17 09:28 | 49.21305 | -2.13385 | 983 ft | 122 kts | 261° |
| 2026-04-17 09:28 | 49.21197 | -2.14671 | 831 ft | 122 kts | 259° |
| 2026-04-17 09:28 | 49.21105 | -2.15968 | 661 ft | 123 kts | 259° |
| 2026-04-17 09:28 | 49.20990 | -2.17237 | 479 ft | 121 kts | 259° |
| 2026-04-17 09:29 | 49.20884 | -2.18535 | 300 ft | 122 kts | 261° |
| 2026-04-17 09:29 | 49.20792 | -2.19620 | 291 ft | 70 kts | 263° |
| 2026-04-17 09:29 | 49.20734 | -2.20070 | 283 ft | 30 kts | 226° |
| 2026-04-17 09:29 | 49.20562 | -2.20085 | 284 ft | 19 kts | 165° |
| 2026-04-17 09:30 | 49.20522 | -2.19973 | 284 ft | 11 kts | 76° |
| 2026-04-17 09:30 | 49.20582 | -2.19919 | 284 ft | 10 kts | 46° |
| 2026-04-17 09:30 | 49.20610 | -2.19810 | 286 ft | 11 kts | 80° |
| 2026-04-17 09:30 | 49.20615 | -2.19743 | 284 ft | 6 kts | 86° |
| 2026-04-17 09:31 | 49.20613 | -2.19728 | 284 ft | 2 kts | 100° |
| 2026-04-17 09:31 | 49.20611 | -2.19720 | 284 ft | 0 kts | 109° |
| 2026-04-17 09:31 | 49.20610 | -2.19717 | 284 ft | 1 kts | 116° |
| 2026-04-17 09:31 | 49.20606 | -2.19711 | 284 ft | 0 kts | 134° |
| 2026-04-17 09:32 | 49.20604 | -2.19709 | 288 ft | 1 kts | 141° |
| 2026-04-17 09:32 | 49.20595 | -2.19706 | 286 ft | 2 kts | 166° |
| 2026-04-17 09:32 | 49.20577 | -2.19702 | 284 ft | 3 kts | 173° |
| 2026-04-17 09:32 | 49.20557 | -2.19699 | 284 ft | 0 kts | 174° |